sensor_id;sensor_type;location;lat;lon;timestamp;P1;durP1;ratioP1;P2;durP2;ratioP2
50363;SDS011;36272;59.400;17.982;2022-12-29T00:02:29;190.40;;;9.32;;
50363;SDS011;36272;59.400;17.982;2022-12-29T00:07:31;104.82;;;7.53;;
50363;SDS011;36272;59.400;17.982;2022-12-29T00:12:33;121.93;;;6.82;;
50363;SDS011;36272;59.400;17.982;2022-12-29T00:17:53;188.55;;;8.48;;
50363;SDS011;36272;59.400;17.982;2022-12-29T00:22:55;113.57;;;6.65;;
50363;SDS011;36272;59.400;17.982;2022-12-29T00:28:15;108.75;;;5.95;;
50363;SDS011;36272;59.400;17.982;2022-12-29T00:33:35;237.23;;;10.50;;
50363;SDS011;36272;59.400;17.982;2022-12-29T00:44:22;108.65;;;5.93;;
50363;SDS011;36272;59.400;17.982;2022-12-29T00:49:24;206.02;;;9.05;;
50363;SDS011;36272;59.400;17.982;2022-12-29T00:54:32;140.73;;;7.75;;
50363;SDS011;36272;59.400;17.982;2022-12-29T00:59:36;156.95;;;7.63;;
50363;SDS011;36272;59.400;17.982;2022-12-29T01:04:39;190.18;;;9.13;;
50363;SDS011;36272;59.400;17.982;2022-12-29T01:09:40;221.98;;;9.52;;
50363;SDS011;36272;59.400;17.982;2022-12-29T01:15:00;200.02;;;8.77;;
50363;SDS011;36272;59.400;17.982;2022-12-29T01:20:02;104.55;;;7.03;;
50363;SDS011;36272;59.400;17.982;2022-12-29T01:25:05;242.88;;;10.80;;
50363;SDS011;36272;59.400;17.982;2022-12-29T01:30:07;198.77;;;8.23;;
50363;SDS011;36272;59.400;17.982;2022-12-29T01:35:09;138.88;;;7.75;;
50363;SDS011;36272;59.400;17.982;2022-12-29T01:40:11;148.02;;;7.18;;
50363;SDS011;36272;59.400;17.982;2022-12-29T01:45:14;186.60;;;8.85;;
50363;SDS011;36272;59.400;17.982;2022-12-29T01:50:33;205.13;;;8.55;;
50363;SDS011;36272;59.400;17.982;2022-12-29T01:55:42;201.88;;;9.32;;
50363;SDS011;36272;59.400;17.982;2022-12-29T02:00:47;135.48;;;7.60;;
50363;SDS011;36272;59.400;17.982;2022-12-29T02:10:58;139.45;;;8.57;;
50363;SDS011;36272;59.400;17.982;2022-12-29T02:37:25;195.82;;;13.57;;
50363;SDS011;36272;59.400;17.982;2022-12-29T02:53:27;365.63;;;18.50;;
50363;SDS011;36272;59.400;17.982;2022-12-29T02:58:48;350.95;;;21.67;;
50363;SDS011;36272;59.400;17.982;2022-12-29T03:09:16;146.27;;;17.42;;
50363;SDS011;36272;59.400;17.982;2022-12-29T03:15:03;108.47;;;20.00;;
50363;SDS011;36272;59.400;17.982;2022-12-29T03:20:31;88.82;;;18.42;;
50363;SDS011;36272;59.400;17.982;2022-12-29T03:25:44;83.07;;;19.23;;
50363;SDS011;36272;59.400;17.982;2022-12-29T03:30:49;84.22;;;21.33;;
50363;SDS011;36272;59.400;17.982;2022-12-29T03:35:52;108.78;;;26.58;;
50363;SDS011;36272;59.400;17.982;2022-12-29T03:40:58;117.65;;;25.67;;
50363;SDS011;36272;59.400;17.982;2022-12-29T03:46:04;88.30;;;22.92;;
50363;SDS011;36272;59.400;17.982;2022-12-29T03:51:06;114.40;;;24.60;;
50363;SDS011;36272;59.400;17.982;2022-12-29T03:56:08;125.30;;;27.00;;
50363;SDS011;36272;59.400;17.982;2022-12-29T04:01:09;108.97;;;24.90;;
50363;SDS011;36272;59.400;17.982;2022-12-29T04:06:11;110.55;;;25.75;;
50363;SDS011;36272;59.400;17.982;2022-12-29T04:11:13;105.82;;;25.92;;
50363;SDS011;36272;59.400;17.982;2022-12-29T04:16:14;99.53;;;26.80;;
50363;SDS011;36272;59.400;17.982;2022-12-29T04:21:16;70.65;;;22.80;;
50363;SDS011;36272;59.400;17.982;2022-12-29T04:26:18;93.97;;;24.45;;
50363;SDS011;36272;59.400;17.982;2022-12-29T04:31:20;74.75;;;22.75;;
50363;SDS011;36272;59.400;17.982;2022-12-29T04:36:21;69.03;;;22.75;;
50363;SDS011;36272;59.400;17.982;2022-12-29T04:41:23;79.50;;;24.75;;
50363;SDS011;36272;59.400;17.982;2022-12-29T04:46:25;69.30;;;23.35;;
50363;SDS011;36272;59.400;17.982;2022-12-29T04:51:26;82.05;;;24.85;;
50363;SDS011;36272;59.400;17.982;2022-12-29T04:56:28;84.35;;;25.17;;
50363;SDS011;36272;59.400;17.982;2022-12-29T05:01:30;86.15;;;24.35;;
50363;SDS011;36272;59.400;17.982;2022-12-29T05:06:31;83.05;;;24.73;;
50363;SDS011;36272;59.400;17.982;2022-12-29T05:11:33;79.25;;;25.15;;
50363;SDS011;36272;59.400;17.982;2022-12-29T05:16:34;86.03;;;26.80;;
50363;SDS011;36272;59.400;17.982;2022-12-29T05:21:36;76.13;;;25.05;;
50363;SDS011;36272;59.400;17.982;2022-12-29T05:26:38;71.65;;;23.88;;
50363;SDS011;36272;59.400;17.982;2022-12-29T05:31:39;74.53;;;24.23;;
50363;SDS011;36272;59.400;17.982;2022-12-29T05:36:41;71.20;;;24.75;;
50363;SDS011;36272;59.400;17.982;2022-12-29T05:41:43;83.82;;;26.38;;
50363;SDS011;36272;59.400;17.982;2022-12-29T05:46:44;88.20;;;27.27;;
50363;SDS011;36272;59.400;17.982;2022-12-29T05:51:47;76.47;;;25.35;;
50363;SDS011;36272;59.400;17.982;2022-12-29T05:56:48;81.72;;;27.40;;
50363;SDS011;36272;59.400;17.982;2022-12-29T06:01:55;81.88;;;26.75;;
50363;SDS011;36272;59.400;17.982;2022-12-29T06:06:57;77.13;;;25.23;;
50363;SDS011;36272;59.400;17.982;2022-12-29T06:11:58;90.32;;;28.50;;
50363;SDS011;36272;59.400;17.982;2022-12-29T06:17:00;87.63;;;28.90;;
50363;SDS011;36272;59.400;17.982;2022-12-29T06:22:02;89.65;;;28.95;;
50363;SDS011;36272;59.400;17.982;2022-12-29T06:27:04;97.20;;;27.80;;
50363;SDS011;36272;59.400;17.982;2022-12-29T06:32:06;80.40;;;25.90;;
50363;SDS011;36272;59.400;17.982;2022-12-29T06:37:07;94.15;;;25.55;;
50363;SDS011;36272;59.400;17.982;2022-12-29T06:42:09;99.78;;;26.70;;
50363;SDS011;36272;59.400;17.982;2022-12-29T06:47:11;114.55;;;29.42;;
50363;SDS011;36272;59.400;17.982;2022-12-29T06:52:12;109.82;;;28.38;;
50363;SDS011;36272;59.400;17.982;2022-12-29T06:57:14;124.25;;;27.65;;
50363;SDS011;36272;59.400;17.982;2022-12-29T07:02:16;143.27;;;29.02;;
50363;SDS011;36272;59.400;17.982;2022-12-29T07:07:20;131.80;;;28.63;;
50363;SDS011;36272;59.400;17.982;2022-12-29T07:12:22;161.57;;;30.63;;
50363;SDS011;36272;59.400;17.982;2022-12-29T07:17:23;149.68;;;29.42;;
50363;SDS011;36272;59.400;17.982;2022-12-29T07:22:25;200.75;;;35.03;;
50363;SDS011;36272;59.400;17.982;2022-12-29T07:27:27;172.35;;;31.48;;
50363;SDS011;36272;59.400;17.982;2022-12-29T07:32:31;243.85;;;37.03;;
50363;SDS011;36272;59.400;17.982;2022-12-29T07:37:34;237.85;;;38.60;;
50363;SDS011;36272;59.400;17.982;2022-12-29T07:42:36;254.45;;;39.85;;
50363;SDS011;36272;59.400;17.982;2022-12-29T07:47:37;256.33;;;36.20;;
50363;SDS011;36272;59.400;17.982;2022-12-29T07:52:39;235.30;;;37.97;;
50363;SDS011;36272;59.400;17.982;2022-12-29T07:57:40;177.38;;;34.80;;
50363;SDS011;36272;59.400;17.982;2022-12-29T08:02:42;206.15;;;36.50;;
50363;SDS011;36272;59.400;17.982;2022-12-29T08:07:44;166.13;;;33.05;;
50363;SDS011;36272;59.400;17.982;2022-12-29T08:12:46;147.18;;;31.90;;
50363;SDS011;36272;59.400;17.982;2022-12-29T08:17:48;111.45;;;29.15;;
50363;SDS011;36272;59.400;17.982;2022-12-29T08:22:50;114.55;;;30.30;;
50363;SDS011;36272;59.400;17.982;2022-12-29T08:27:52;122.28;;;29.70;;
50363;SDS011;36272;59.400;17.982;2022-12-29T08:32:54;86.80;;;27.45;;
50363;SDS011;36272;59.400;17.982;2022-12-29T08:37:56;90.93;;;25.40;;
50363;SDS011;36272;59.400;17.982;2022-12-29T08:42:57;86.80;;;25.15;;
50363;SDS011;36272;59.400;17.982;2022-12-29T08:47:59;88.10;;;23.40;;
50363;SDS011;36272;59.400;17.982;2022-12-29T08:53:00;85.45;;;23.75;;
50363;SDS011;36272;59.400;17.982;2022-12-29T08:58:02;70.68;;;23.45;;
50363;SDS011;36272;59.400;17.982;2022-12-29T09:03:04;85.57;;;23.30;;
50363;SDS011;36272;59.400;17.982;2022-12-29T09:08:05;80.78;;;22.05;;
50363;SDS011;36272;59.400;17.982;2022-12-29T09:13:07;72.20;;;21.58;;
50363;SDS011;36272;59.400;17.982;2022-12-29T09:18:09;72.65;;;20.98;;
50363;SDS011;36272;59.400;17.982;2022-12-29T09:23:12;71.00;;;19.20;;
50363;SDS011;36272;59.400;17.982;2022-12-29T09:28:13;55.83;;;17.60;;
50363;SDS011;36272;59.400;17.982;2022-12-29T09:33:15;46.80;;;16.77;;
50363;SDS011;36272;59.400;17.982;2022-12-29T09:38:18;48.22;;;15.43;;
50363;SDS011;36272;59.400;17.982;2022-12-29T09:43:24;41.42;;;15.05;;
50363;SDS011;36272;59.400;17.982;2022-12-29T09:48:47;35.80;;;14.18;;
50363;SDS011;36272;59.400;17.982;2022-12-29T09:54:20;34.78;;;13.30;;
50363;SDS011;36272;59.400;17.982;2022-12-29T09:59:26;37.25;;;13.73;;
50363;SDS011;36272;59.400;17.982;2022-12-29T10:04:40;54.70;;;15.95;;
50363;SDS011;36272;59.400;17.982;2022-12-29T10:09:53;47.15;;;17.75;;
50363;SDS011;36272;59.400;17.982;2022-12-29T10:15:11;60.75;;;20.02;;
50363;SDS011;36272;59.400;17.982;2022-12-29T10:25:24;77.93;;;24.42;;
50363;SDS011;36272;59.400;17.982;2022-12-29T10:30:29;75.97;;;24.13;;
50363;SDS011;36272;59.400;17.982;2022-12-29T10:35:36;75.95;;;24.27;;
50363;SDS011;36272;59.400;17.982;2022-12-29T10:46:02;77.57;;;22.92;;
50363;SDS011;36272;59.400;17.982;2022-12-29T10:51:08;73.05;;;22.55;;
50363;SDS011;36272;59.400;17.982;2022-12-29T11:01:38;58.08;;;20.20;;
50363;SDS011;36272;59.400;17.982;2022-12-29T11:06:50;56.03;;;19.05;;
50363;SDS011;36272;59.400;17.982;2022-12-29T11:11:52;50.88;;;17.08;;
50363;SDS011;36272;59.400;17.982;2022-12-29T11:16:57;52.10;;;16.77;;
50363;SDS011;36272;59.400;17.982;2022-12-29T11:27:22;52.15;;;16.85;;
50363;SDS011;36272;59.400;17.982;2022-12-29T11:32:27;40.22;;;16.20;;
50363;SDS011;36272;59.400;17.982;2022-12-29T11:37:38;43.45;;;15.60;;
50363;SDS011;36272;59.400;17.982;2022-12-29T11:42:41;39.55;;;17.85;;
50363;SDS011;36272;59.400;17.982;2022-12-29T11:58:35;53.47;;;19.65;;
50363;SDS011;36272;59.400;17.982;2022-12-29T12:03:38;50.28;;;19.73;;
50363;SDS011;36272;59.400;17.982;2022-12-29T12:08:48;57.25;;;21.85;;
50363;SDS011;36272;59.400;17.982;2022-12-29T12:35:06;49.88;;;21.88;;
50363;SDS011;36272;59.400;17.982;2022-12-29T12:56:03;38.33;;;18.23;;
50363;SDS011;36272;59.400;17.982;2022-12-29T13:17:42;35.40;;;16.77;;
50363;SDS011;36272;59.400;17.982;2022-12-29T13:28:36;43.38;;;18.50;;
50363;SDS011;36272;59.400;17.982;2022-12-29T13:39:00;36.75;;;16.88;;
50363;SDS011;36272;59.400;17.982;2022-12-29T13:44:06;32.53;;;15.32;;
50363;SDS011;36272;59.400;17.982;2022-12-29T13:49:19;36.45;;;15.73;;
50363;SDS011;36272;59.400;17.982;2022-12-29T14:00:11;29.17;;;13.30;;
50363;SDS011;36272;59.400;17.982;2022-12-29T14:10:31;27.73;;;11.75;;
50363;SDS011;36272;59.400;17.982;2022-12-29T14:15:38;21.40;;;11.63;;
50363;SDS011;36272;59.400;17.982;2022-12-29T14:20:56;23.97;;;11.73;;
50363;SDS011;36272;59.400;17.982;2022-12-29T14:41:32;26.67;;;13.23;;
50363;SDS011;36272;59.400;17.982;2022-12-29T14:46:43;28.33;;;13.27;;
50363;SDS011;36272;59.400;17.982;2022-12-29T14:51:46;34.15;;;14.80;;
50363;SDS011;36272;59.400;17.982;2022-12-29T14:56:49;36.17;;;16.13;;
50363;SDS011;36272;59.400;17.982;2022-12-29T15:01:52;42.38;;;18.33;;
50363;SDS011;36272;59.400;17.982;2022-12-29T15:06:55;46.97;;;19.90;;
50363;SDS011;36272;59.400;17.982;2022-12-29T15:12:01;59.67;;;22.25;;
50363;SDS011;36272;59.400;17.982;2022-12-29T15:17:24;53.60;;;22.27;;
50363;SDS011;36272;59.400;17.982;2022-12-29T15:22:26;55.08;;;22.13;;
50363;SDS011;36272;59.400;17.982;2022-12-29T15:27:28;52.20;;;22.65;;
50363;SDS011;36272;59.400;17.982;2022-12-29T15:32:39;57.47;;;22.10;;
50363;SDS011;36272;59.400;17.982;2022-12-29T15:37:43;52.40;;;21.58;;
50363;SDS011;36272;59.400;17.982;2022-12-29T15:47:46;52.70;;;18.92;;
50363;SDS011;36272;59.400;17.982;2022-12-29T15:52:51;45.70;;;18.15;;
50363;SDS011;36272;59.400;17.982;2022-12-29T15:57:55;37.33;;;16.25;;
50363;SDS011;36272;59.400;17.982;2022-12-29T16:03:02;32.80;;;15.40;;
50363;SDS011;36272;59.400;17.982;2022-12-29T16:13:38;28.65;;;13.43;;
50363;SDS011;36272;59.400;17.982;2022-12-29T16:18:44;27.77;;;12.57;;
50363;SDS011;36272;59.400;17.982;2022-12-29T16:23:48;29.57;;;14.07;;
50363;SDS011;36272;59.400;17.982;2022-12-29T16:28:56;29.13;;;13.98;;
50363;SDS011;36272;59.400;17.982;2022-12-29T16:34:10;31.95;;;15.38;;
50363;SDS011;36272;59.400;17.982;2022-12-29T16:39:26;30.55;;;15.35;;
50363;SDS011;36272;59.400;17.982;2022-12-29T16:44:31;38.92;;;17.38;;
50363;SDS011;36272;59.400;17.982;2022-12-29T16:49:36;41.65;;;18.20;;
50363;SDS011;36272;59.400;17.982;2022-12-29T16:54:40;37.83;;;17.48;;
50363;SDS011;36272;59.400;17.982;2022-12-29T16:59:42;42.08;;;19.35;;
50363;SDS011;36272;59.400;17.982;2022-12-29T17:04:44;44.22;;;19.10;;
50363;SDS011;36272;59.400;17.982;2022-12-29T17:09:49;46.23;;;20.50;;
50363;SDS011;36272;59.400;17.982;2022-12-29T17:15:01;37.28;;;19.45;;
50363;SDS011;36272;59.400;17.982;2022-12-29T17:20:16;46.08;;;20.85;;
50363;SDS011;36272;59.400;17.982;2022-12-29T17:25:33;43.60;;;21.15;;
50363;SDS011;36272;59.400;17.982;2022-12-29T17:30:38;42.80;;;20.17;;
50363;SDS011;36272;59.400;17.982;2022-12-29T17:35:41;41.58;;;20.00;;
50363;SDS011;36272;59.400;17.982;2022-12-29T17:40:44;38.15;;;18.75;;
50363;SDS011;36272;59.400;17.982;2022-12-29T17:45:47;49.75;;;18.08;;
50363;SDS011;36272;59.400;17.982;2022-12-29T17:50:53;38.55;;;17.90;;
50363;SDS011;36272;59.400;17.982;2022-12-29T17:55:58;34.10;;;16.63;;
50363;SDS011;36272;59.400;17.982;2022-12-29T18:01:00;35.80;;;16.80;;
50363;SDS011;36272;59.400;17.982;2022-12-29T18:06:03;29.50;;;15.68;;
50363;SDS011;36272;59.400;17.982;2022-12-29T18:11:15;28.23;;;14.60;;
50363;SDS011;36272;59.400;17.982;2022-12-29T18:16:22;36.08;;;15.23;;
50363;SDS011;36272;59.400;17.982;2022-12-29T18:21:24;29.05;;;13.52;;
50363;SDS011;36272;59.400;17.982;2022-12-29T18:26:26;28.73;;;13.40;;
50363;SDS011;36272;59.400;17.982;2022-12-29T18:31:32;27.27;;;13.52;;
50363;SDS011;36272;59.400;17.982;2022-12-29T18:36:35;23.13;;;12.10;;
50363;SDS011;36272;59.400;17.982;2022-12-29T18:41:36;25.13;;;12.40;;
50363;SDS011;36272;59.400;17.982;2022-12-29T18:46:38;26.02;;;13.15;;
50363;SDS011;36272;59.400;17.982;2022-12-29T18:51:40;27.30;;;13.10;;
50363;SDS011;36272;59.400;17.982;2022-12-29T18:56:42;30.48;;;14.25;;
50363;SDS011;36272;59.400;17.982;2022-12-29T19:01:43;28.38;;;13.05;;
50363;SDS011;36272;59.400;17.982;2022-12-29T19:06:45;33.65;;;13.20;;
50363;SDS011;36272;59.400;17.982;2022-12-29T19:11:47;31.35;;;11.40;;
50363;SDS011;36272;59.400;17.982;2022-12-29T19:16:48;24.83;;;11.90;;
50363;SDS011;36272;59.400;17.982;2022-12-29T19:21:50;22.98;;;11.50;;
50363;SDS011;36272;59.400;17.982;2022-12-29T19:31:58;21.50;;;10.70;;
50363;SDS011;36272;59.400;17.982;2022-12-29T19:36:59;30.38;;;11.10;;
50363;SDS011;36272;59.400;17.982;2022-12-29T19:42:01;23.60;;;10.63;;
50363;SDS011;36272;59.400;17.982;2022-12-29T19:52:50;25.92;;;10.10;;
50363;SDS011;36272;59.400;17.982;2022-12-29T19:58:08;28.00;;;10.35;;
50363;SDS011;36272;59.400;17.982;2022-12-29T20:03:19;21.35;;;9.73;;
50363;SDS011;36272;59.400;17.982;2022-12-29T20:08:20;21.63;;;9.13;;
50363;SDS011;36272;59.400;17.982;2022-12-29T20:13:22;24.73;;;9.68;;
50363;SDS011;36272;59.400;17.982;2022-12-29T20:18:24;30.35;;;9.55;;
50363;SDS011;36272;59.400;17.982;2022-12-29T20:29:15;17.15;;;7.95;;
50363;SDS011;36272;59.400;17.982;2022-12-29T20:34:17;26.98;;;8.10;;
50363;SDS011;36272;59.400;17.982;2022-12-29T20:39:20;18.77;;;8.15;;
50363;SDS011;36272;59.400;17.982;2022-12-29T20:44:21;16.50;;;7.10;;
50363;SDS011;36272;59.400;17.982;2022-12-29T20:49:23;17.67;;;7.00;;
50363;SDS011;36272;59.400;17.982;2022-12-29T20:54:25;20.38;;;6.55;;
50363;SDS011;36272;59.400;17.982;2022-12-29T20:59:27;18.25;;;6.10;;
50363;SDS011;36272;59.400;17.982;2022-12-29T21:04:30;16.35;;;6.07;;
50363;SDS011;36272;59.400;17.982;2022-12-29T21:09:32;23.35;;;6.47;;
50363;SDS011;36272;59.400;17.982;2022-12-29T21:14:34;23.02;;;6.20;;
50363;SDS011;36272;59.400;17.982;2022-12-29T21:19:35;15.38;;;6.05;;
50363;SDS011;36272;59.400;17.982;2022-12-29T21:24:37;14.93;;;5.57;;
50363;SDS011;36272;59.400;17.982;2022-12-29T21:29:39;23.08;;;6.45;;
50363;SDS011;36272;59.400;17.982;2022-12-29T21:34:41;15.68;;;6.00;;
50363;SDS011;36272;59.400;17.982;2022-12-29T21:39:43;17.75;;;6.25;;
50363;SDS011;36272;59.400;17.982;2022-12-29T21:44:44;18.85;;;5.80;;
50363;SDS011;36272;59.400;17.982;2022-12-29T21:50:04;18.05;;;6.05;;
50363;SDS011;36272;59.400;17.982;2022-12-29T21:55:06;23.52;;;6.15;;
50363;SDS011;36272;59.400;17.982;2022-12-29T22:00:09;17.33;;;5.43;;
50363;SDS011;36272;59.400;17.982;2022-12-29T22:05:30;19.17;;;5.32;;
50363;SDS011;36272;59.400;17.982;2022-12-29T22:10:50;22.63;;;6.03;;
50363;SDS011;36272;59.400;17.982;2022-12-29T22:16:10;18.25;;;4.97;;
50363;SDS011;36272;59.400;17.982;2022-12-29T22:21:12;18.38;;;5.32;;
50363;SDS011;36272;59.400;17.982;2022-12-29T22:26:14;16.70;;;4.53;;
50363;SDS011;36272;59.400;17.982;2022-12-29T22:31:21;18.77;;;4.40;;
50363;SDS011;36272;59.400;17.982;2022-12-29T22:36:27;16.20;;;4.60;;
50363;SDS011;36272;59.400;17.982;2022-12-29T22:41:29;17.17;;;4.82;;
50363;SDS011;36272;59.400;17.982;2022-12-29T22:46:31;17.60;;;4.40;;
50363;SDS011;36272;59.400;17.982;2022-12-29T22:51:32;12.25;;;4.07;;
50363;SDS011;36272;59.400;17.982;2022-12-29T22:56:34;16.42;;;4.28;;
50363;SDS011;36272;59.400;17.982;2022-12-29T23:01:42;17.85;;;4.00;;
50363;SDS011;36272;59.400;17.982;2022-12-29T23:06:43;14.25;;;4.07;;
50363;SDS011;36272;59.400;17.982;2022-12-29T23:11:45;14.70;;;3.45;;
50363;SDS011;36272;59.400;17.982;2022-12-29T23:16:48;12.00;;;3.58;;
50363;SDS011;36272;59.400;17.982;2022-12-29T23:21:49;23.65;;;4.40;;
50363;SDS011;36272;59.400;17.982;2022-12-29T23:26:51;12.77;;;3.70;;
50363;SDS011;36272;59.400;17.982;2022-12-29T23:31:53;14.07;;;3.92;;
50363;SDS011;36272;59.400;17.982;2022-12-29T23:36:55;17.35;;;3.75;;
50363;SDS011;36272;59.400;17.982;2022-12-29T23:41:57;13.35;;;3.30;;
50363;SDS011;36272;59.400;17.982;2022-12-29T23:46:58;17.48;;;3.60;;
50363;SDS011;36272;59.400;17.982;2022-12-29T23:52:00;10.60;;;3.15;;
50363;SDS011;36272;59.400;17.982;2022-12-29T23:57:01;12.38;;;3.60;;
